Hovedside
METAR-TAF:

METAR-TAF

Lufthavner :

Mehamn lufthavn

Gamvik, Norge

breddegrad: 71-02N, lengdegrad: 027-50E, høyde over havet: 1 m

Gjeldene værobservasjon

Denne rapporten ble laget for 1 time og 5 minutter siden, klokken 03:50 UTC
Vind 7 kt fra Øst-nordøst
Temperatur 7°C
Luftfuktighet 93%
Trykk 997 hPa
Sikt 10 km eller mer
Spredte skyer i en høyde av 400 ft
Brutte skyer i en høyde av 600 ft
lette regnbyger

METAR: ENMH 210350Z 06007KT 9999 -SHRA SCT004 BKN006 07/06 Q0997

Tid: 06:55 (04:55 UTC)


TAF: fraværende

Værobservasjoner og værvarsel for over 4000 flyplasser (METAR- og TAF-rapporter).

Tilgjengelige stasjoner er representert av de røde og gule prikkene på kartet.

Hold musepekeren over prikken for å se navnet på stasjonen.

Klikk så for å se værobservasjoner og -varsler.

For å forandre kartet kan du klikke på den grønne knappen med svart kryss for å zoome inn, på den grønne knappen med strek for å zoome ut, eller på de grønne pilene for å se tilstøtende kart.


METAR-TAF: